Time,TemperatureF,DewpointF,PressureIn,WindDirection,WindDirectionDegrees,WindSpeedMPH,WindSpeedGustMPH,Humidity,HourlyPrecipIn,Conditions,Clouds,dailyrainin,SolarRadiationWatts/m^2,SoftwareType,DateUTC
2013-10-08 00:12:00,47.0,26.0,-100.00,ENE,60,0.0,4.0,44,-99.99,,,0.00,0.000000,,2013-10-08 06:12:00,
2013-10-08 00:22:00,47.0,26.0,-100.00,ENE,60,0.0,4.0,44,-99.99,,,0.00,0.000000,,2013-10-08 06:22:00,
2013-10-08 00:32:00,47.0,26.0,-100.00,ENE,60,0.0,4.0,44,-99.99,,,0.00,0.000000,,2013-10-08 06:32:00,
2013-10-08 02:22:00,46.0,25.0,-100.00,ENE,60,3.0,4.0,44,-99.99,,,0.00,0.000000,,2013-10-08 08:22:00,
2013-10-08 02:32:00,46.0,25.0,-100.00,ENE,60,3.0,4.0,44,-99.99,,,0.00,0.000000,,2013-10-08 08:32:00,
2013-10-08 03:12:00,43.0,23.0,-100.00,NNE,24,2.0,5.0,44,0.00,,,0.00,0.000000,,2013-10-08 09:12:00,
2013-10-08 03:21:00,43.0,23.0,-100.00,NNE,24,2.0,5.0,44,0.00,,,0.00,0.000000,,2013-10-08 09:21:00,
2013-10-08 03:33:00,43.0,23.0,-100.00,NNE,24,2.0,5.0,44,0.00,,,0.00,0.000000,,2013-10-08 09:33:00,
2013-10-08 04:12:00,41.0,24.0,-100.00,SE,133,0.0,5.0,51,0.00,,,0.00,0.000000,,2013-10-08 10:12:00,
2013-10-08 04:23:00,41.0,24.0,-100.00,SE,133,0.0,5.0,51,0.00,,,0.00,0.000000,,2013-10-08 10:23:00,
2013-10-08 04:33:00,41.0,24.0,-100.00,SE,133,0.0,5.0,51,0.00,,,0.00,0.000000,,2013-10-08 10:33:00,
2013-10-08 04:42:00,41.0,24.0,-100.00,SE,133,0.0,5.0,51,0.00,,,0.00,0.000000,,2013-10-08 10:42:00,
2013-10-08 05:12:00,41.0,22.0,-100.00,SE,136,0.0,6.0,47,0.00,,,0.00,0.000000,,2013-10-08 11:12:00,
2013-10-08 05:21:00,41.0,22.0,-100.00,SE,136,0.0,6.0,47,0.00,,,0.00,0.000000,,2013-10-08 11:21:00,
2013-10-08 05:33:00,41.0,22.0,-100.00,SE,136,0.0,6.0,47,0.00,,,0.00,0.000000,,2013-10-08 11:33:00,
2013-10-08 06:12:00,37.0,24.0,-100.00,NE,48,4.0,6.0,59,-99.99,,,0.00,0.000000,,2013-10-08 12:12:00,
2013-10-08 06:21:00,37.0,24.0,-100.00,NE,48,4.0,6.0,59,-99.99,,,0.00,0.000000,,2013-10-08 12:21:00,
2013-10-08 06:31:00,37.0,24.0,-100.00,NE,48,4.0,6.0,59,-99.99,,,0.00,0.000000,,2013-10-08 12:31:00,
2013-10-08 06:42:00,37.0,24.0,-100.00,NE,48,4.0,6.0,59,-99.99,,,0.00,0.000000,,2013-10-08 12:42:00,
2013-10-08 07:11:00,35.0,22.0,-100.00,SSE,156,2.0,6.0,58,0.00,,,0.00,0.000000,,2013-10-08 13:11:00,
2013-10-08 07:22:00,35.0,22.0,-100.00,SSE,156,2.0,6.0,58,0.00,,,0.00,0.000000,,2013-10-08 13:22:00,
2013-10-08 07:32:00,35.0,22.0,-100.00,SSE,156,2.0,6.0,58,0.00,,,0.00,0.000000,,2013-10-08 13:32:00,
2013-10-08 07:42:00,35.0,22.0,-100.00,SSE,156,2.0,6.0,58,0.00,,,0.00,0.000000,,2013-10-08 13:42:00,
2013-10-08 08:11:00,36.0,22.0,-100.00,ESE,115,0.0,7.0,57,0.00,,,-99.99,8.000000,,2013-10-08 14:11:00,
2013-10-08 08:22:00,36.0,22.0,-100.00,ESE,115,0.0,7.0,57,0.00,,,-99.99,8.000000,,2013-10-08 14:22:00,
2013-10-08 08:32:00,36.0,22.0,-100.00,ESE,115,0.0,7.0,57,0.00,,,-99.99,8.000000,,2013-10-08 14:32:00,
2013-10-08 10:42:00,49.0,27.0,-100.00,North,11,3.0,8.0,43,-99.99,,,0.00,460.000000,,2013-10-08 16:42:00,
2013-10-08 11:22:00,56.0,29.0,-100.00,NNE,19,1.0,6.0,35,-99.99,,,-99.99,656.000000,,2013-10-08 17:22:00,
2013-10-08 11:33:00,56.0,29.0,-100.00,NNE,19,1.0,6.0,35,-99.99,,,-99.99,656.000000,,2013-10-08 17:33:00,
2013-10-08 11:42:00,56.0,29.0,-100.00,NNE,19,1.0,6.0,35,-99.99,,,-99.99,656.000000,,2013-10-08 17:42:00,
2013-10-08 12:22:00,61.0,24.0,-100.00,NNE,26,3.0,9.0,24,0.00,,,0.00,845.000000,,2013-10-08 18:22:00,
2013-10-08 12:32:00,61.0,24.0,-100.00,NNE,26,3.0,9.0,24,0.00,,,0.00,845.000000,,2013-10-08 18:32:00,
2013-10-08 12:42:00,61.0,24.0,-100.00,NNE,26,3.0,9.0,24,0.00,,,0.00,845.000000,,2013-10-08 18:42:00,
2013-10-08 13:11:00,59.0,20.0,-100.00,West,274,5.0,11.0,22,0.00,,,0.00,929.000000,,2013-10-08 19:11:00,
2013-10-08 13:21:00,59.0,20.0,-100.00,West,274,5.0,11.0,22,0.00,,,0.00,929.000000,,2013-10-08 19:21:00,
2013-10-08 13:31:00,59.0,20.0,-100.00,West,274,5.0,11.0,22,0.00,,,0.00,929.000000,,2013-10-08 19:31:00,
2013-10-08 13:42:00,59.0,20.0,-100.00,West,274,5.0,11.0,22,0.00,,,0.00,929.000000,,2013-10-08 19:42:00,
2013-10-08 14:12:00,63.0,25.0,-100.00,NW,308,6.0,13.0,23,0.00,,,0.00,940.000000,,2013-10-08 20:12:00,
2013-10-08 14:22:00,63.0,25.0,-100.00,NW,308,6.0,13.0,23,0.00,,,0.00,940.000000,,2013-10-08 20:22:00,
2013-10-08 14:32:00,63.0,25.0,-100.00,NW,308,6.0,13.0,23,0.00,,,0.00,940.000000,,2013-10-08 20:32:00,
2013-10-08 14:42:00,63.0,25.0,-100.00,NW,308,6.0,13.0,23,0.00,,,0.00,940.000000,,2013-10-08 20:42:00,
2013-10-08 15:12:00,63.0,26.0,-100.00,WNW,303,9.0,18.0,24,0.00,,,0.00,874.000000,,2013-10-08 21:12:00,
2013-10-08 15:21:00,63.0,26.0,-100.00,WNW,303,9.0,18.0,24,0.00,,,0.00,874.000000,,2013-10-08 21:21:00,
2013-10-08 15:34:00,63.0,26.0,-100.00,WNW,303,9.0,18.0,24,0.00,,,0.00,874.000000,,2013-10-08 21:34:00,
2013-10-08 15:44:00,63.0,26.0,-100.00,WNW,303,9.0,18.0,24,0.00,,,0.00,874.000000,,2013-10-08 21:44:00,
2013-10-08 16:24:00,60.0,24.0,-100.00,NW,309,11.0,25.0,25,0.00,,,0.00,741.000000,,2013-10-08 22:24:00,
2013-10-08 16:32:00,60.0,24.0,-100.00,NW,309,11.0,25.0,25,0.00,,,0.00,741.000000,,2013-10-08 22:32:00,
2013-10-08 16:45:00,60.0,24.0,-100.00,NW,309,11.0,25.0,25,0.00,,,0.00,741.000000,,2013-10-08 22:45:00,
2013-10-08 17:12:00,59.0,24.0,-100.00,SE,133,7.0,20.0,26,0.00,,,0.00,539.000000,,2013-10-08 23:12:00,
2013-10-08 17:22:00,59.0,24.0,-100.00,SE,133,7.0,20.0,26,0.00,,,0.00,539.000000,,2013-10-08 23:22:00,
2013-10-08 17:34:00,59.0,24.0,-100.00,SE,133,7.0,20.0,26,0.00,,,0.00,539.000000,,2013-10-08 23:34:00,
2013-10-08 17:42:00,59.0,24.0,-100.00,SE,133,7.0,20.0,26,0.00,,,0.00,539.000000,,2013-10-08 23:42:00,
2013-10-08 18:12:00,56.0,24.0,-100.00,WNW,302,9.0,20.0,29,0.00,,,0.00,197.000000,,2013-10-09 00:12:00,
2013-10-08 18:22:00,56.0,24.0,-100.00,WNW,302,9.0,20.0,29,0.00,,,0.00,197.000000,,2013-10-09 00:22:00,
2013-10-08 18:32:00,56.0,24.0,-100.00,WNW,302,9.0,20.0,29,0.00,,,0.00,197.000000,,2013-10-09 00:32:00,
2013-10-08 18:42:00,56.0,24.0,-100.00,WNW,302,9.0,20.0,29,0.00,,,0.00,197.000000,,2013-10-09 00:42:00,
2013-10-08 19:12:00,49.0,22.0,-100.00,WNW,301,8.0,18.0,34,0.00,,,0.00,26.000000,,2013-10-09 01:12:00,
2013-10-08 19:21:00,49.0,22.0,-100.00,WNW,301,8.0,18.0,34,0.00,,,0.00,26.000000,,2013-10-09 01:21:00,
2013-10-08 19:32:00,49.0,22.0,-100.00,WNW,301,8.0,18.0,34,0.00,,,0.00,26.000000,,2013-10-09 01:32:00,
2013-10-08 19:43:00,49.0,22.0,-100.00,WNW,301,8.0,18.0,34,0.00,,,0.00,26.000000,,2013-10-09 01:43:00,
2013-10-08 20:12:00,47.0,23.0,-100.00,ENE,65,0.0,11.0,38,0.00,,,0.00,0.000000,,2013-10-09 02:12:00,
2013-10-08 20:22:00,47.0,23.0,-100.00,ENE,65,0.0,11.0,38,0.00,,,0.00,0.000000,,2013-10-09 02:22:00,
2013-10-08 20:32:00,47.0,23.0,-100.00,ENE,65,0.0,11.0,38,0.00,,,0.00,0.000000,,2013-10-09 02:32:00,
2013-10-08 20:42:00,47.0,23.0,-100.00,ENE,65,0.0,11.0,38,0.00,,,0.00,0.000000,,2013-10-09 02:42:00,
2013-10-08 21:11:00,45.0,21.0,-100.00,ESE,102,1.0,6.0,38,0.00,,,0.00,0.000000,,2013-10-09 03:11:00,
2013-10-08 21:23:00,45.0,21.0,-100.00,ESE,102,1.0,6.0,38,0.00,,,0.00,0.000000,,2013-10-09 03:23:00,
2013-10-08 21:34:00,45.0,21.0,-100.00,ESE,102,1.0,6.0,38,0.00,,,0.00,0.000000,,2013-10-09 03:34:00,
2013-10-08 21:44:00,45.0,21.0,-100.00,ESE,102,1.0,6.0,38,0.00,,,0.00,0.000000,,2013-10-09 03:44:00,
2013-10-08 22:14:00,44.0,19.0,-100.00,SSW,199,4.0,6.0,37,0.00,,,0.00,0.000000,,2013-10-09 04:14:00,
2013-10-08 22:24:00,44.0,19.0,-100.00,SSW,199,4.0,6.0,37,0.00,,,0.00,0.000000,,2013-10-09 04:24:00,
2013-10-08 22:34:00,44.0,19.0,-100.00,SSW,199,4.0,6.0,37,0.00,,,0.00,0.000000,,2013-10-09 04:34:00,
2013-10-08 22:44:00,44.0,19.0,-100.00,SSW,199,4.0,6.0,37,0.00,,,0.00,0.000000,,2013-10-09 04:44:00,
2013-10-08 23:13:00,45.0,21.0,-100.00,SSW,194,5.0,7.0,38,0.00,,,0.00,0.000000,,2013-10-09 05:13:00,
2013-10-08 23:22:00,45.0,21.0,-100.00,SSW,194,5.0,7.0,38,0.00,,,0.00,0.000000,,2013-10-09 05:22:00,
2013-10-08 23:34:00,45.0,21.0,-100.00,SSW,194,5.0,7.0,38,0.00,,,0.00,0.000000,,2013-10-09 05:34:00,